Elgoibar, Spain
Current Conditions -  °F | °C
As of 6:42 PM on Tuesday 21 Oct 2014 (Local Time) from LEBB Reporting Station
Drizzle Drizzle  
Wind Chill: 68°   Ceiling: 2000
Heat Index: 68°   Visibility: 3mi
Dew Point: 63°   Wind: 13mph
Humidity: 83%   Direction: 320°NW
Pressure: 30.36"   Gusts: NA
Location:  43.22°N, 2.41°W
Report Text: LEBB 211642Z 32011KT 290V350 5000 -DZ BR SCT014 BKN02020/17 Q1028 NOSIG
Loading
Personal Weather Stations






























Interactive Weather Map
Tropical Storm Tracking
New forecast layout! Learn more

10-Day Weather Forecast

Advertisements
Track Severe Weather on mobile